Time;durP1;ratioP1;P1;durP2;ratioP2;P2;SDS_P1;SDS_P2;PMS_P1;PMS_P2;Temp;Humidity;BMP_temperature;BMP_pressure;BME280_temperature;BME280_humidity;BME280_pressure;Samples;Min_cycle;Max_cycle;Signal;HPM_P1;HPM_P2
2022/04/26 03:37:58;;;;;;;;;;;9.60;99.90;;;;;;5113155;28;19983;-69
2022/04/26 03:40:24;;;;;;;;;;;9.60;99.90;;;;;;5117762;28;19927;-70
2022/04/26 03:42:51;;;;;;;;;;;9.70;99.90;;;;;;5103631;28;19920;-69
2022/04/26 03:45:18;;;;;;;;;;;9.70;99.90;;;;;;5108566;28;19926;-69
2022/04/26 03:47:44;;;;;;;;;;;9.70;99.90;;;;;;5122760;28;19919;-69
2022/04/26 03:50:11;;;;;;;;;;;9.70;99.90;;;;;;5109806;28;20233;-70
2022/04/26 03:52:40;;;;;;;;;;;9.70;99.90;;;;;;5119401;28;19923;-70
2022/04/26 03:55:07;;;;;;;;;;;9.70;99.90;;;;;;5119937;28;19920;-68
2022/04/26 03:57:34;;;;;;;;;;;9.70;99.90;;;;;;5109279;28;19992;-69
2022/04/26 04:00:00;;;;;;;;;;;9.70;99.90;;;;;;5122102;28;19926;-69
2022/04/26 04:02:27;;;;;;;;;;;9.70;99.90;;;;;;5123982;28;19926;-69
2022/04/26 04:04:53;;;;;;;;;;;9.70;99.90;;;;;;5122177;28;19987;-69
2022/04/26 04:07:20;;;;;;;;;;;9.70;99.90;;;;;;5121296;28;19920;-69
2022/04/26 04:09:48;;;;;;;;;;;9.70;99.90;;;;;;5123298;28;19919;-68
2022/04/26 04:12:14;;;;;;;;;;;9.80;99.90;;;;;;5104409;28;20088;-69
2022/04/26 04:14:41;;;;;;;;;;;9.80;99.90;;;;;;5103202;28;19927;-69
2022/04/26 04:17:08;;;;;;;;;;;9.80;99.90;;;;;;5112956;28;19923;-69
2022/04/26 04:19:34;;;;;;;;;;;9.80;99.90;;;;;;5103406;28;19927;-69
2022/04/26 04:22:01;;;;;;;;;;;9.80;99.90;;;;;;5103664;28;19928;-69
2022/04/26 04:24:27;;;;;;;;;;;9.80;99.90;;;;;;5106628;28;19920;-68
2022/04/26 04:26:55;;;;;;;;;;;9.70;99.90;;;;;;5107017;28;19925;-69
2022/04/26 04:29:22;;;;;;;;;;;9.70;99.90;;;;;;5108541;28;19928;-69
2022/04/26 04:31:49;;;;;;;;;;;9.80;99.90;;;;;;5107546;28;19955;-68
2022/04/26 04:34:16;;;;;;;;;;;9.70;99.90;;;;;;5106252;28;19920;-68
2022/04/26 04:36:43;;;;;;;;;;;9.70;99.90;;;;;;5122201;28;19920;-68
2022/04/26 04:39:09;;;;;;;;;;;9.70;99.90;;;;;;5107062;28;19947;-68
2022/04/26 04:41:36;;;;;;;;;;;9.70;99.90;;;;;;5107223;28;19983;-68
2022/04/26 04:44:08;;;;;;;;;;;9.60;99.90;;;;;;5106729;28;19974;-68
2022/04/26 04:46:34;;;;;;;;;;;9.60;99.90;;;;;;5106533;28;19920;-67
2022/04/26 04:49:01;;;;;;;;;;;9.60;99.90;;;;;;5106734;28;19920;-69
2022/04/26 04:51:27;;;;;;;;;;;9.60;99.90;;;;;;5120524;28;19919;-68
2022/04/26 04:53:54;;;;;;;;;;;9.60;99.90;;;;;;5107791;28;19920;-69
2022/04/26 04:56:21;;;;;;;;;;;9.60;99.90;;;;;;5107000;28;19920;-71
2022/04/26 04:58:47;;;;;;;;;;;9.50;99.90;;;;;;5106939;28;19926;-69
2022/04/26 05:01:15;;;;;;;;;;;9.50;99.90;;;;;;5106809;28;19920;-69
2022/04/26 05:03:42;;;;;;;;;;;9.50;99.90;;;;;;5106804;28;19926;-69
2022/04/26 05:06:08;;;;;;;;;;;9.60;99.90;;;;;;5106652;28;19926;-69
2022/04/26 05:08:35;;;;;;;;;;;9.60;99.90;;;;;;5106556;28;19928;-69
2022/04/26 05:11:02;;;;;;;;;;;9.60;99.90;;;;;;5106525;28;19920;-68
2022/04/26 05:13:28;;;;;;;;;;;9.70;99.90;;;;;;5106541;28;19920;-69
2022/04/26 05:15:55;;;;;;;;;;;9.60;99.90;;;;;;5106233;28;20225;-69
2022/04/26 05:18:23;;;;;;;;;;;9.60;99.90;;;;;;5106720;28;19926;-69
2022/04/26 05:20:49;;;;;;;;;;;9.70;99.90;;;;;;5094470;28;19920;-69
2022/04/26 05:26:00;;;;;;;;;;;9.70;99.90;;;;;;5096251;28;19923;-68
2022/04/26 05:28:27;;;;;;;;;;;9.70;99.90;;;;;;5106313;28;19920;-69
2022/04/26 05:30:53;;;;;;;;;;;9.70;99.90;;;;;;5106183;28;19995;-69
2022/04/26 05:33:20;;;;;;;;;;;9.80;99.90;;;;;;5106447;28;19920;-69
2022/04/26 05:35:48;;;;;;;;;;;9.80;99.90;;;;;;5105934;28;19983;-67
2022/04/26 05:38:15;;;;;;;;;;;9.90;99.90;;;;;;5106460;28;19920;-69
2022/04/26 05:40:42;;;;;;;;;;;9.80;99.90;;;;;;5106408;28;19920;-68
2022/04/26 05:43:09;;;;;;;;;;;9.80;99.90;;;;;;5105958;28;19920;-69
2022/04/26 05:45:35;;;;;;;;;;;9.80;99.90;;;;;;5118021;28;19926;-69
2022/04/26 05:48:02;;;;;;;;;;;9.90;99.90;;;;;;5126526;28;19920;-69
2022/04/26 05:50:28;;;;;;;;;;;9.90;99.90;;;;;;5125813;28;19935;-68
2022/04/26 05:52:56;;;;;;;;;;;9.80;99.90;;;;;;5126047;28;19966;-69
2022/04/26 05:55:23;;;;;;;;;;;9.80;99.90;;;;;;5107659;28;19924;-68
2022/04/26 05:57:50;;;;;;;;;;;9.80;99.90;;;;;;5105503;28;19927;-69
2022/04/26 06:00:17;;;;;;;;;;;9.70;99.90;;;;;;5106907;28;19999;-69
2022/04/26 06:02:43;;;;;;;;;;;9.70;99.90;;;;;;5105487;28;20095;-69
2022/04/26 06:05:10;;;;;;;;;;;9.60;99.90;;;;;;5104948;28;19958;-69
2022/04/26 06:07:37;;;;;;;;;;;9.60;99.90;;;;;;5105291;28;19920;-69
2022/04/26 06:10:05;;;;;;;;;;;9.70;99.90;;;;;;5105541;28;19958;-69
2022/04/26 06:12:33;;;;;;;;;;;9.70;99.90;;;;;;5105248;28;19920;-69
2022/04/26 06:15:00;;;;;;;;;;;9.70;99.90;;;;;;5104848;28;19920;-69
2022/04/26 06:17:27;;;;;;;;;;;9.60;99.90;;;;;;5104477;28;19924;-70
2022/04/26 06:19:53;;;;;;;;;;;9.60;99.90;;;;;;5117429;28;19927;-69
2022/04/26 06:22:20;;;;;;;;;;;9.60;99.90;;;;;;5125580;28;20155;-69
2022/04/26 06:24:49;;;;;;;;;;;9.50;99.90;;;;;;5125425;28;20104;-69
2022/04/26 06:27:17;;;;;;;;;;;9.50;99.90;;;;;;5111145;28;20274;-68
2022/04/26 06:29:44;;;;;;;;;;;9.50;99.90;;;;;;5106062;28;19926;-68
2022/04/26 06:32:10;;;;;;;;;;;9.50;99.90;;;;;;5104584;28;19924;-69
2022/04/26 06:34:37;;;;;;;;;;;9.40;99.90;;;;;;5104804;28;19927;-68
2022/04/26 06:37:04;;;;;;;;;;;9.30;99.90;;;;;;5104520;28;19927;-69
2022/04/26 06:39:30;;;;;;;;;;;9.20;99.90;;;;;;5105040;28;19920;-69
2022/04/26 06:41:57;;;;;;;;;;;9.20;99.90;;;;;;5104616;28;19920;-68
2022/04/26 06:44:25;;;;;;;;;;;9.20;99.90;;;;;;5104832;28;19961;-69
2022/04/26 06:46:51;;;;;;;;;;;9.20;99.90;;;;;;5103685;28;19920;-68
2022/04/26 06:49:18;;;;;;;;;;;9.20;99.90;;;;;;5110143;28;19920;-69
2022/04/26 06:51:44;;;;;;;;;;;9.20;99.90;;;;;;5124942;28;20121;-69
2022/04/26 06:54:12;;;;;;;;;;;9.20;99.90;;;;;;5124914;28;19926;-69
2022/04/26 06:56:40;;;;;;;;;;;9.20;99.90;;;;;;5124753;28;19923;-69
2022/04/26 06:59:06;;;;;;;;;;;9.20;99.90;;;;;;5121346;28;20208;-69
2022/04/26 07:01:34;;;;;;;;;;;9.30;99.90;;;;;;5105653;28;19942;-68
2022/04/26 07:04:01;;;;;;;;;;;9.20;99.90;;;;;;5124438;28;20215;-68
2022/04/26 07:06:27;;;;;;;;;;;9.30;99.90;;;;;;5124157;28;19920;-68
2022/04/26 07:08:54;;;;;;;;;;;9.30;99.90;;;;;;5124638;28;19927;-69
2022/04/26 07:11:21;;;;;;;;;;;9.30;99.90;;;;;;5124513;28;19919;-70
2022/04/26 07:13:47;;;;;;;;;;;9.30;99.90;;;;;;5107805;28;19920;-69
2022/04/26 07:16:14;;;;;;;;;;;9.30;99.90;;;;;;5106496;28;19927;-68
2022/04/26 07:18:42;;;;;;;;;;;9.20;99.90;;;;;;5124417;28;19919;-69
2022/04/26 07:21:08;;;;;;;;;;;9.20;99.90;;;;;;5124535;28;20138;-69
2022/04/26 07:23:35;;;;;;;;;;;9.20;99.90;;;;;;5124383;28;19927;-69
2022/04/26 07:26:01;;;;;;;;;;;9.20;99.90;;;;;;5105754;28;19926;-68
2022/04/26 07:28:28;;;;;;;;;;;9.20;99.90;;;;;;5103774;28;19924;-69
2022/04/26 07:30:54;;;;;;;;;;;9.10;99.90;;;;;;5103783;28;20199;-68
2022/04/26 07:36:07;;;;;;;;;;;9.00;99.90;;;;;;5103204;28;19943;-71
2022/04/26 07:38:33;;;;;;;;;;;9.00;99.90;;;;;;5103769;28;19962;-65
2022/04/26 07:41:00;;;;;;;;;;;9.00;99.90;;;;;;5101533;28;19924;-65
2022/04/26 07:43:26;;;;;;;;;;;8.90;99.90;;;;;;5083910;28;19929;-67
2022/04/26 07:45:53;;;;;;;;;;;8.90;99.90;;;;;;5083342;28;20111;-65
2022/04/26 07:48:22;;;;;;;;;;;8.90;99.90;;;;;;5089021;28;19929;-65
2022/04/26 07:50:49;;;;;;;;;;;8.90;99.90;;;;;;5083698;28;19920;-65
2022/04/26 07:53:17;;;;;;;;;;;9.00;99.90;;;;;;5085204;28;19980;-64
2022/04/26 07:55:44;;;;;;;;;;;9.00;99.90;;;;;;5095284;28;19927;-65
2022/04/26 07:58:11;;;;;;;;;;;9.00;99.90;;;;;;5095559;28;19991;-65
2022/04/26 08:00:38;;;;;;;;;;;9.00;99.90;;;;;;5087641;28;20154;-66
2022/04/26 08:03:05;;;;;;;;;;;9.00;99.90;;;;;;5107137;28;19927;-65
2022/04/26 08:05:31;;;;;;;;;;;9.00;99.90;;;;;;5092100;28;20208;-66
2022/04/26 08:07:58;;;;;;;;;;;9.00;99.90;;;;;;5098876;28;19920;-65
2022/04/26 08:10:26;;;;;;;;;;;9.00;99.90;;;;;;5098063;28;19927;-65
2022/04/26 08:12:53;;;;;;;;;;;9.10;99.90;;;;;;5094404;28;19919;-65
2022/04/26 08:15:19;;;;;;;;;;;9.10;99.90;;;;;;5100832;28;19924;-66
2022/04/26 08:17:48;;;;;;;;;;;9.10;99.90;;;;;;5107172;28;19920;-65
2022/04/26 08:20:14;;;;;;;;;;;9.10;99.90;;;;;;5097102;28;19948;-65
2022/04/26 08:22:41;;;;;;;;;;;9.10;99.90;;;;;;5094611;28;19920;-65
2022/04/26 08:27:53;;;;;;;;;;;9.10;99.90;;;;;;5097285;28;19923;-65
2022/04/26 08:30:20;;;;;;;;;;;9.10;99.90;;;;;;5110483;28;19919;-65
2022/04/26 08:32:47;;;;;;;;;;;9.10;99.90;;;;;;5105021;28;19920;-65
2022/04/26 08:35:15;;;;;;;;;;;9.20;99.90;;;;;;5093526;28;19927;-66
2022/04/26 08:37:42;;;;;;;;;;;9.20;99.90;;;;;;5099062;28;19995;-65
2022/04/26 08:40:10;;;;;;;;;;;9.30;99.90;;;;;;5100894;28;19920;-66
2022/04/26 08:42:37;;;;;;;;;;;9.30;99.90;;;;;;5106481;28;19947;-65
2022/04/26 08:45:07;;;;;;;;;;;9.40;99.90;;;;;;5091953;28;20110;-65
2022/04/26 08:53:03;;;;;;;;;;;9.70;99.90;;;;;;5095715;28;20114;-66
2022/04/26 08:55:31;;;;;;;;;;;9.80;99.90;;;;;;5091012;28;20124;-65
2022/04/26 08:57:58;;;;;;;;;;;9.90;99.90;;;;;;5085767;28;19920;-65
2022/04/26 09:00:26;;;;;;;;;;;10.00;99.90;;;;;;5087798;28;20112;-65
2022/04/26 09:03:00;;;;;;;;;;;10.10;99.90;;;;;;5095943;28;19927;-65
2022/04/26 09:05:26;;;;;;;;;;;10.20;99.90;;;;;;5085679;28;20208;-66
2022/04/26 09:07:53;;;;;;;;;;;10.30;99.90;;;;;;5086942;28;19920;-65
2022/04/26 09:10:21;;;;;;;;;;;10.30;99.90;;;;;;5085891;28;19920;-65
2022/04/26 09:13:07;;;;;;;;;;;10.40;99.90;;;;;;5092172;28;20204;-65
2022/04/26 09:15:42;;;;;;;;;;;10.50;99.90;;;;;;5087071;28;19931;-66
2022/04/26 09:18:21;;;;;;;;;;;10.50;99.90;;;;;;5101229;28;19927;-66
2022/04/26 09:20:48;;;;;;;;;;;10.50;99.90;;;;;;5098374;28;19927;-65
2022/04/26 09:23:16;;;;;;;;;;;10.60;99.90;;;;;;5098840;28;19992;-66
2022/04/26 09:25:42;;;;;;;;;;;10.60;99.90;;;;;;5102677;28;19920;-65
2022/04/26 09:28:09;;;;;;;;;;;10.60;99.90;;;;;;5106099;28;19930;-65
2022/04/26 09:30:36;;;;;;;;;;;10.70;99.90;;;;;;5102193;28;19981;-65
2022/04/26 09:33:04;;;;;;;;;;;10.70;99.90;;;;;;5089942;28;19920;-66
2022/04/26 09:35:32;;;;;;;;;;;10.70;99.90;;;;;;5098364;28;19971;-65
2022/04/26 09:37:59;;;;;;;;;;;10.60;99.90;;;;;;5104769;28;19983;-66
2022/04/26 09:40:31;;;;;;;;;;;10.60;99.90;;;;;;5099068;28;19962;-65
2022/04/26 09:42:57;;;;;;;;;;;10.50;99.90;;;;;;5100994;28;19920;-66
2022/04/26 09:45:25;;;;;;;;;;;10.40;99.90;;;;;;5085022;28;19920;-66
2022/04/26 09:47:57;;;;;;;;;;;10.30;99.90;;;;;;5092961;28;20260;-65
2022/04/26 09:50:25;;;;;;;;;;;10.30;99.90;;;;;;5096133;28;20084;-65
2022/04/26 09:52:55;;;;;;;;;;;10.30;99.90;;;;;;5103537;28;19928;-65
2022/04/26 09:55:22;;;;;;;;;;;10.30;99.90;;;;;;5099277;28;19920;-65
2022/04/26 09:57:50;;;;;;;;;;;10.30;99.90;;;;;;5102282;28;19920;-64
2022/04/26 10:00:16;;;;;;;;;;;10.20;99.90;;;;;;5105565;28;19924;-65
2022/04/26 10:02:46;;;;;;;;;;;10.10;99.90;;;;;;5104267;28;19970;-65
2022/04/26 10:05:14;;;;;;;;;;;9.90;99.90;;;;;;5104975;28;19927;-66
2022/04/26 10:07:45;;;;;;;;;;;9.80;99.90;;;;;;5099307;28;19962;-65
2022/04/26 10:10:13;;;;;;;;;;;9.80;99.90;;;;;;5105417;28;19920;-66
2022/04/26 10:12:40;;;;;;;;;;;9.70;99.90;;;;;;5105113;28;20146;-65
2022/04/26 10:15:07;;;;;;;;;;;9.70;99.90;;;;;;5104450;28;19920;-65
2022/04/26 10:17:34;;;;;;;;;;;9.70;99.90;;;;;;5105269;28;19926;-65
2022/04/26 10:20:01;;;;;;;;;;;9.70;99.90;;;;;;5104222;28;20122;-65
2022/04/26 10:22:46;;;;;;;;;;;9.70;99.90;;;;;;5104349;28;19966;-65
2022/04/26 10:25:16;;;;;;;;;;;9.70;99.90;;;;;;5099705;28;19920;-66
2022/04/26 10:27:42;;;;;;;;;;;9.80;99.90;;;;;;5084489;28;20003;-65
2022/04/26 10:30:09;;;;;;;;;;;9.80;99.90;;;;;;5099406;28;19920;-66
2022/04/26 10:32:38;;;;;;;;;;;9.80;99.90;;;;;;5086968;28;19983;-66
2022/04/26 10:35:23;;;;;;;;;;;9.90;99.90;;;;;;5084274;28;19921;-65
2022/04/26 10:38:08;;;;;;;;;;;9.90;99.90;;;;;;5097032;28;19920;-65
2022/04/26 10:43:28;;;;;;;;;;;10.00;99.90;;;;;;5164207;27;19958;-66
2022/04/26 10:46:11;;;;;;;;;;;10.10;99.90;;;;;;5120988;28;19920;-65
2022/04/26 10:48:37;;;;;;;;;;;10.10;99.90;;;;;;5120920;28;19958;-66
2022/04/26 10:51:19;;;;;;;;;;;10.10;99.90;;;;;;5120265;28;19920;-66
2022/04/26 10:53:46;;;;;;;;;;;10.00;99.90;;;;;;5130205;28;19928;-66
2022/04/26 10:56:12;;;;;;;;;;;9.90;99.90;;;;;;5132190;27;20088;-66
2022/04/26 10:58:51;;;;;;;;;;;9.90;99.90;;;;;;5100540;28;20047;-67
2022/04/26 11:01:18;;;;;;;;;;;9.90;99.90;;;;;;5116711;28;19927;-66
2022/04/26 11:03:51;;;;;;;;;;;9.90;99.90;;;;;;5120905;28;19920;-66
2022/04/26 11:06:31;;;;;;;;;;;9.90;99.90;;;;;;5124054;28;19927;-65
2022/04/26 11:09:08;;;;;;;;;;;10.00;99.90;;;;;;5141864;27;19926;-66
2022/04/26 11:11:46;;;;;;;;;;;10.00;99.90;;;;;;5137488;27;20101;-65
2022/04/26 11:14:14;;;;;;;;;;;9.90;99.90;;;;;;5120526;28;20150;-66
2022/04/26 11:16:53;;;;;;;;;;;10.00;99.90;;;;;;5120798;28;19920;-66
2022/04/26 11:19:25;;;;;;;;;;;10.00;99.90;;;;;;5106202;28;19951;-67
2022/04/26 11:21:52;;;;;;;;;;;10.10;99.90;;;;;;5100877;28;19935;-69
2022/04/26 11:29:52;;;;;;;;;;;10.10;99.90;;;;;;5128909;28;19938;-69
2022/04/26 11:32:28;;;;;;;;;;;10.20;99.90;;;;;;5141249;27;19920;-69
2022/04/26 11:34:55;;;;;;;;;;;10.20;99.90;;;;;;5122174;27;19920;-69
2022/04/26 11:37:22;;;;;;;;;;;10.30;99.90;;;;;;5140685;27;19924;-69
2022/04/26 11:39:48;;;;;;;;;;;10.30;99.90;;;;;;5139803;27;19926;-69
2022/04/26 11:42:15;;;;;;;;;;;10.40;99.90;;;;;;5136257;27;20230;-69
2022/04/26 11:45:00;;;;;;;;;;;10.50;99.90;;;;;;5141139;27;19926;-69
2022/04/26 11:47:39;;;;;;;;;;;10.70;99.90;;;;;;5132854;27;19920;-69
2022/04/26 11:50:09;;;;;;;;;;;10.80;99.90;;;;;;5119718;28;19981;-69
2022/04/26 11:52:36;;;;;;;;;;;10.90;99.90;;;;;;5121108;28;19932;-70
2022/04/26 11:55:02;;;;;;;;;;;10.90;99.90;;;;;;5126376;28;19920;-69
2022/04/26 11:57:29;;;;;;;;;;;10.90;99.90;;;;;;5106808;28;19920;-70
2022/04/26 11:59:55;;;;;;;;;;;10.90;99.90;;;;;;5106190;28;20111;-69
2022/04/26 12:02:24;;;;;;;;;;;10.80;99.90;;;;;;5105520;28;20232;-69
2022/04/26 12:04:50;;;;;;;;;;;10.80;99.90;;;;;;5110869;28;20140;-68
2022/04/26 12:07:18;;;;;;;;;;;10.80;99.90;;;;;;5092992;28;19924;-69
2022/04/26 12:09:44;;;;;;;;;;;10.70;99.90;;;;;;5086571;28;19920;-69
2022/04/26 12:12:12;;;;;;;;;;;10.70;99.90;;;;;;5106186;28;19920;-68
2022/04/26 12:14:41;;;;;;;;;;;10.60;99.90;;;;;;5106223;28;20096;-69
2022/04/26 12:17:16;;;;;;;;;;;10.50;99.90;;;;;;5095740;28;19920;-70
2022/04/26 12:19:50;;;;;;;;;;;10.50;99.90;;;;;;5105254;28;19920;-69
2022/04/26 12:22:16;;;;;;;;;;;10.60;99.90;;;;;;5105661;28;19958;-69
2022/04/26 12:24:46;;;;;;;;;;;10.50;99.90;;;;;;5125117;28;20124;-70
2022/04/26 12:27:13;;;;;;;;;;;10.60;99.90;;;;;;5096524;28;20211;-69
2022/04/26 12:29:41;;;;;;;;;;;10.60;99.90;;;;;;5105764;28;19920;-69
2022/04/26 12:32:08;;;;;;;;;;;10.70;99.90;;;;;;5105035;28;19920;-69
2022/04/26 12:34:35;;;;;;;;;;;10.90;99.90;;;;;;5105385;28;19935;-69
2022/04/26 12:37:07;;;;;;;;;;;10.90;99.90;;;;;;5104899;28;19927;-69
2022/04/26 12:39:43;;;;;;;;;;;10.90;99.90;;;;;;5105658;28;19965;-69
2022/04/26 12:42:10;;;;;;;;;;;11.00;99.90;;;;;;5109209;28;19928;-70
2022/04/26 12:44:38;;;;;;;;;;;11.00;99.90;;;;;;5085342;28;19920;-70
2022/04/26 12:52:46;;;;;;;;;;;11.10;99.90;;;;;;5114753;28;19922;-69
2022/04/26 12:55:13;;;;;;;;;;;11.30;99.90;;;;;;5104900;28;19957;-69
2022/04/26 12:57:47;;;;;;;;;;;11.40;99.90;;;;;;5087525;28;19926;-69
2022/04/26 13:00:14;;;;;;;;;;;11.50;99.90;;;;;;5085814;28;20200;-69
2022/04/26 13:02:41;;;;;;;;;;;11.60;99.90;;;;;;5104299;28;19926;-70
2022/04/26 13:05:08;;;;;;;;;;;11.70;99.90;;;;;;5104022;28;19935;-69
2022/04/26 13:07:34;;;;;;;;;;;11.70;99.90;;;;;;5088104;28;20234;-69
2022/04/26 13:10:02;;;;;;;;;;;11.70;99.90;;;;;;5083414;28;19920;-69
2022/04/26 13:12:29;;;;;;;;;;;11.70;99.90;;;;;;5083251;28;19920;-69
2022/04/26 13:14:56;;;;;;;;;;;11.60;99.90;;;;;;5091575;22;20230;-69
2022/04/26 13:17:22;;;;;;;;;;;11.50;99.90;;;;;;5078405;28;19921;-68
2022/04/26 13:19:49;;;;;;;;;;;11.50;99.90;;;;;;5075476;28;19921;-69
2022/04/26 13:22:16;;;;;;;;;;;11.50;99.90;;;;;;5075932;28;19920;-69
2022/04/26 13:24:44;;;;;;;;;;;11.60;99.90;;;;;;5076647;28;19984;-68
2022/04/26 13:27:12;;;;;;;;;;;11.70;99.90;;;;;;5067910;28;19921;-69
2022/04/26 13:29:39;;;;;;;;;;;11.90;99.90;;;;;;5074418;28;19924;-69
2022/04/26 13:32:05;;;;;;;;;;;12.10;99.90;;;;;;5074593;28;19929;-68
2022/04/26 13:34:32;;;;;;;;;;;12.30;99.90;;;;;;5069467;28;20003;-69
2022/04/26 13:36:59;;;;;;;;;;;12.30;99.90;;;;;;5064297;28;19921;-69
2022/04/26 13:39:26;;;;;;;;;;;12.40;99.90;;;;;;5064453;28;19920;-69
2022/04/26 13:41:52;;;;;;;;;;;12.50;99.90;;;;;;5064176;28;19920;-69
2022/04/26 13:44:21;;;;;;;;;;;12.60;99.90;;;;;;5063984;28;19920;-69
2022/04/26 13:46:47;;;;;;;;;;;12.70;99.90;;;;;;5062196;28;19928;-69
2022/04/26 13:49:14;;;;;;;;;;;12.70;99.90;;;;;;5064198;28;19927;-69
2022/04/26 13:51:40;;;;;;;;;;;12.80;99.90;;;;;;5063841;28;19921;-69
2022/04/26 13:54:08;;;;;;;;;;;12.80;99.90;;;;;;5064148;28;19920;-69
2022/04/26 13:56:34;;;;;;;;;;;12.70;99.90;;;;;;5062409;28;19966;-70
2022/04/26 13:59:01;;;;;;;;;;;12.60;99.90;;;;;;5064133;28;19924;-69
2022/04/26 14:01:29;;;;;;;;;;;12.60;99.90;;;;;;5063713;28;19927;-69
2022/04/26 14:03:56;;;;;;;;;;;12.50;99.90;;;;;;5063462;28;19924;-68
2022/04/26 14:06:23;;;;;;;;;;;12.40;99.90;;;;;;5063901;28;19921;-69
2022/04/26 14:08:49;;;;;;;;;;;12.30;99.90;;;;;;5063479;28;20219;-69
2022/04/26 14:11:16;;;;;;;;;;;12.30;99.90;;;;;;5063427;28;19991;-69
2022/04/26 14:21:59;;;;;;;;;;;12.30;99.90;;;;;;5081433;28;20022;-68
2022/04/26 14:24:25;;;;;;;;;;;12.40;99.90;;;;;;5075227;28;19921;-69
2022/04/26 14:26:52;;;;;;;;;;;12.40;99.90;;;;;;5064374;28;19920;-69
2022/04/26 14:29:18;;;;;;;;;;;12.40;99.90;;;;;;5063335;28;20212;-69
2022/04/26 14:31:45;;;;;;;;;;;12.30;99.90;;;;;;5063449;28;19921;-71
2022/04/26 14:34:14;;;;;;;;;;;12.20;99.90;;;;;;5073202;28;19920;-69
2022/04/26 14:36:41;;;;;;;;;;;11.90;99.90;;;;;;5081377;28;19978;-68
2022/04/26 14:39:08;;;;;;;;;;;11.40;99.90;;;;;;5063265;28;19956;-68
2022/04/26 14:41:38;;;;;;;;;;;10.70;99.90;;;;;;5080965;28;19924;-69
2022/04/26 14:44:06;;;;;;;;;;;10.30;99.90;;;;;;5083481;28;20223;-68
2022/04/26 14:46:32;;;;;;;;;;;10.00;99.90;;;;;;5066643;28;19921;-69
2022/04/26 14:48:59;;;;;;;;;;;9.90;99.90;;;;;;5063093;28;19928;-69
2022/04/26 14:51:27;;;;;;;;;;;9.90;99.90;;;;;;5078639;28;19955;-69
2022/04/26 14:53:53;;;;;;;;;;;10.00;99.90;;;;;;5066018;28;20108;-69
2022/04/26 14:56:20;;;;;;;;;;;10.10;99.90;;;;;;5070118;28;19920;-69
2022/04/26 14:58:49;;;;;;;;;;;10.30;99.90;;;;;;5083524;28;19920;-68
2022/04/26 15:01:16;;;;;;;;;;;10.50;99.90;;;;;;5083383;28;19927;-69
2022/04/26 15:03:44;;;;;;;;;;;10.80;99.90;;;;;;5082217;28;19920;-68
2022/04/26 15:06:10;;;;;;;;;;;11.30;99.90;;;;;;5081809;28;19971;-68
2022/04/26 15:11:27;;;;;;;;;;;12.20;99.90;;;;;;5016715;28;20204;-67
2022/04/26 15:16:42;;;;;;;;;;;12.60;99.90;;;;;;5063120;28;19969;-66
2022/04/26 15:19:10;;;;;;;;;;;12.30;99.90;;;;;;5068761;28;20238;-67
2022/04/26 15:21:38;;;;;;;;;;;12.40;99.90;;;;;;5070745;28;20147;-67
2022/04/26 15:24:06;;;;;;;;;;;12.70;99.90;;;;;;5062416;28;19921;-66
2022/04/26 15:26:34;;;;;;;;;;;13.20;99.90;;;;;;5064821;28;19928;-67
2022/04/26 15:29:00;;;;;;;;;;;13.60;99.90;;;;;;5078643;28;19921;-67
2022/04/26 15:31:27;;;;;;;;;;;14.10;99.90;;;;;;5064857;28;19943;-67
2022/04/26 15:33:54;;;;;;;;;;;14.40;99.90;;;;;;5064540;28;19984;-66
2022/04/26 15:36:21;;;;;;;;;;;14.60;99.90;;;;;;5054555;28;20232;-66
2022/04/26 15:38:48;;;;;;;;;;;14.90;99.90;;;;;;5052951;28;19984;-67
2022/04/26 15:41:17;;;;;;;;;;;14.90;99.90;;;;;;5054739;28;19989;-66
2022/04/26 15:43:43;;;;;;;;;;;14.80;99.90;;;;;;5061652;28;20204;-67
2022/04/26 15:46:11;;;;;;;;;;;14.80;99.90;;;;;;5063573;28;19948;-66
2022/04/26 15:48:39;;;;;;;;;;;14.80;99.90;;;;;;5059912;28;19984;-67
2022/04/26 15:51:06;;;;;;;;;;;14.80;99.90;;;;;;5060364;28;19920;-68
2022/04/26 15:53:33;;;;;;;;;;;14.30;99.90;;;;;;5066071;28;19921;-67
2022/04/26 15:56:00;;;;;;;;;;;13.80;99.90;;;;;;5066084;28;20204;-67
2022/04/26 15:58:27;;;;;;;;;;;13.50;99.90;;;;;;5065828;28;19943;-68
2022/04/26 16:00:57;;;;;;;;;;;13.30;99.90;;;;;;5068519;28;19927;-65
2022/04/26 16:03:23;;;;;;;;;;;13.20;99.90;;;;;;5074743;28;20003;-70
2022/04/26 16:05:50;;;;;;;;;;;13.10;99.90;;;;;;5052995;28;20212;-70
2022/04/26 16:08:16;;;;;;;;;;;13.00;99.90;;;;;;5055342;28;20230;-70
2022/04/26 16:21:41;;;;;;;;;;;12.30;99.90;;;;;;5067710;28;19983;-70
2022/04/26 16:24:07;;;;;;;;;;;12.10;99.90;;;;;;5064885;28;20017;-69
2022/04/26 16:26:36;;;;;;;;;;;12.00;99.90;;;;;;5065233;28;19921;-70
2022/04/26 16:29:05;;;;;;;;;;;11.90;99.90;;;;;;5073792;28;19921;-70
2022/04/26 16:31:32;;;;;;;;;;;11.80;99.90;;;;;;5074337;28;19920;-70
2022/04/26 16:34:00;;;;;;;;;;;11.70;99.90;;;;;;5079059;28;19921;-70
2022/04/26 16:36:28;;;;;;;;;;;11.60;99.90;;;;;;5076301;28;19921;-70
2022/04/26 16:38:55;;;;;;;;;;;11.50;99.90;;;;;;5078264;28;19921;-69
2022/04/26 16:41:22;;;;;;;;;;;11.50;99.90;;;;;;5072828;28;19927;-67
2022/04/26 16:43:49;;;;;;;;;;;11.50;99.90;;;;;;5081926;28;19924;-67
2022/04/26 16:46:19;;;;;;;;;;;11.60;99.90;;;;;;5076834;28;19952;-67
2022/04/26 16:48:46;;;;;;;;;;;11.70;99.90;;;;;;5069331;28;19924;-67
2022/04/26 16:51:14;;;;;;;;;;;11.80;99.90;;;;;;5071131;28;19921;-69
2022/04/26 16:53:42;;;;;;;;;;;11.80;99.90;;;;;;5076076;28;19987;-68
2022/04/26 16:56:09;;;;;;;;;;;11.70;99.90;;;;;;5072057;28;20167;-67
2022/04/26 16:58:35;;;;;;;;;;;11.70;99.90;;;;;;5057305;28;19921;-68
2022/04/26 17:01:02;;;;;;;;;;;11.60;99.90;;;;;;5061398;28;19983;-69
2022/04/26 17:03:30;;;;;;;;;;;11.50;99.90;;;;;;5062531;28;19924;-67
2022/04/26 17:05:57;;;;;;;;;;;11.50;99.90;;;;;;5074470;28;19921;-67
2022/04/26 17:08:23;;;;;;;;;;;11.50;99.90;;;;;;5084207;28;20294;-68
2022/04/26 17:10:51;;;;;;;;;;;11.50;99.90;;;;;;5069039;28;19993;-68
2022/04/26 17:13:17;;;;;;;;;;;11.50;99.90;;;;;;5044543;28;19928;-67
2022/04/26 17:15:44;;;;;;;;;;;11.50;99.90;;;;;;5043967;28;20097;-67
2022/04/26 17:18:14;;;;;;;;;;;11.60;99.90;;;;;;5044595;28;19920;-67
2022/04/26 17:20:42;;;;;;;;;;;11.50;99.90;;;;;;5045525;28;19921;-67
2022/04/26 17:23:09;;;;;;;;;;;11.50;99.90;;;;;;5044731;28;20116;-67
2022/04/26 17:25:38;;;;;;;;;;;11.40;99.90;;;;;;5043938;28;19988;-67
2022/04/26 17:28:07;;;;;;;;;;;11.30;99.90;;;;;;5044457;28;20220;-67
2022/04/26 17:30:34;;;;;;;;;;;11.30;99.90;;;;;;5044251;28;19959;-66
2022/04/26 17:33:02;;;;;;;;;;;11.20;99.90;;;;;;5042439;28;19921;-67
2022/04/26 17:35:30;;;;;;;;;;;11.20;99.90;;;;;;5044120;28;19921;-67
2022/04/26 17:37:58;;;;;;;;;;;11.20;99.90;;;;;;5060836;28;19921;-67
2022/04/26 17:40:25;;;;;;;;;;;11.20;99.90;;;;;;5064396;28;19928;-67
2022/04/26 17:42:53;;;;;;;;;;;11.10;99.90;;;;;;5064098;28;20267;-67
2022/04/26 17:45:21;;;;;;;;;;;11.10;99.90;;;;;;5063622;28;20208;-67
2022/04/26 17:47:48;;;;;;;;;;;11.10;99.90;;;;;;5064277;28;19958;-67
2022/04/26 17:50:14;;;;;;;;;;;11.00;99.90;;;;;;5064294;28;20295;-67
2022/04/26 17:58:08;;;;;;;;;;;11.00;99.90;;;;;;5065104;28;19943;-68
2022/04/26 18:00:35;;;;;;;;;;;11.00;99.90;;;;;;5063853;28;20204;-68
2022/04/26 18:03:02;;;;;;;;;;;11.00;99.90;;;;;;5064530;28;19921;-67
2022/04/26 18:05:28;;;;;;;;;;;11.00;99.90;;;;;;5062588;28;19933;-67
2022/04/26 18:07:55;;;;;;;;;;;11.10;99.90;;;;;;5063852;28;19921;-66
2022/04/26 18:10:23;;;;;;;;;;;11.00;99.90;;;;;;5061210;28;19943;-66
2022/04/26 18:12:50;;;;;;;;;;;11.00;99.90;;;;;;5046340;28;20208;-66
2022/04/26 18:15:17;;;;;;;;;;;11.00;99.90;;;;;;5063093;28;19921;-67
2022/04/26 18:17:44;;;;;;;;;;;11.00;99.90;;;;;;5057612;28;19940;-65
2022/04/26 18:20:10;;;;;;;;;;;11.00;99.90;;;;;;5043349;28;19922;-66
2022/04/26 18:22:38;;;;;;;;;;;11.00;99.90;;;;;;5048125;28;19929;-65
2022/04/26 18:25:07;;;;;;;;;;;10.90;99.90;;;;;;5075048;28;19987;-66
2022/04/26 18:27:35;;;;;;;;;;;10.90;99.90;;;;;;5062012;28;19956;-66
2022/04/26 18:30:02;;;;;;;;;;;10.90;99.90;;;;;;5065437;28;19982;-65
2022/04/26 18:32:31;;;;;;;;;;;10.80;99.90;;;;;;5043835;28;19928;-66
2022/04/26 18:34:57;;;;;;;;;;;10.80;99.90;;;;;;5055101;28;19921;-66
2022/04/26 18:37:24;;;;;;;;;;;10.80;99.90;;;;;;5056648;28;19929;-67
2022/04/26 18:39:51;;;;;;;;;;;10.80;99.90;;;;;;5058423;28;19921;-66
2022/04/26 18:42:17;;;;;;;;;;;10.70;99.90;;;;;;5057248;28;20050;-65
2022/04/26 18:44:45;;;;;;;;;;;10.70;99.90;;;;;;5060820;28;19929;-66
2022/04/26 18:47:12;;;;;;;;;;;10.60;99.90;;;;;;5059593;28;19943;-67
2022/04/26 18:49:38;;;;;;;;;;;10.60;99.90;;;;;;5064269;28;20346;-66
2022/04/26 18:52:05;;;;;;;;;;;10.60;99.90;;;;;;5079158;28;19988;-66
2022/04/26 18:54:32;;;;;;;;;;;10.50;99.90;;;;;;5074275;28;19987;-66
2022/04/26 18:56:58;;;;;;;;;;;10.50;99.90;;;;;;5062703;28;20131;-67
2022/04/26 18:59:25;;;;;;;;;;;10.40;99.90;;;;;;5062983;28;20187;-67
2022/04/26 19:01:54;;;;;;;;;;;10.40;99.90;;;;;;5062714;28;19967;-65